sensor_id;sensor_type;location;lat;lon;timestamp;pressure;altitude;pressure_sealevel;temperature;humidity
56600;BME280;51832;48.152;11.530;2023-01-26T00:03:35;95817.00;;;4.06;67.35
56600;BME280;51832;48.152;11.530;2023-01-26T00:08:38;95821.78;;;3.95;68.70
56600;BME280;51832;48.152;11.530;2023-01-26T00:13:40;95823.19;;;4.28;67.42
56600;BME280;51832;48.152;11.530;2023-01-26T00:18:41;95809.41;;;4.42;66.48
56600;BME280;51832;48.152;11.530;2023-01-26T00:23:41;95801.25;;;4.45;66.59
56600;BME280;51832;48.152;11.530;2023-01-26T00:28:42;95803.13;;;4.51;66.29
56600;BME280;51832;48.152;11.530;2023-01-26T00:33:43;95801.81;;;4.55;64.99
56600;BME280;51832;48.152;11.530;2023-01-26T00:38:44;95795.31;;;3.83;69.11
56600;BME280;51832;48.152;11.530;2023-01-26T00:43:44;95794.53;;;3.82;68.81
56600;BME280;51832;48.152;11.530;2023-01-26T00:48:45;95793.22;;;4.32;66.98
56600;BME280;51832;48.152;11.530;2023-01-26T00:53:45;95783.94;;;4.29;66.48
56600;BME280;51832;48.152;11.530;2023-01-26T00:58:45;95788.81;;;4.33;66.67
56600;BME280;51832;48.152;11.530;2023-01-26T01:03:46;95783.25;;;3.90;68.93
56600;BME280;51832;48.152;11.530;2023-01-26T01:08:46;95774.28;;;3.92;69.34
56600;BME280;51832;48.152;11.530;2023-01-26T01:13:46;95777.50;;;3.41;70.54
56600;BME280;51832;48.152;11.530;2023-01-26T01:18:47;95778.28;;;3.80;68.41
56600;BME280;51832;48.152;11.530;2023-01-26T01:23:48;95780.69;;;3.82;68.82
56600;BME280;51832;48.152;11.530;2023-01-26T01:28:53;95779.41;;;4.09;67.21
56600;BME280;51832;48.152;11.530;2023-01-26T01:33:55;95772.38;;;4.32;66.23
56600;BME280;51832;48.152;11.530;2023-01-26T01:38:56;95777.81;;;4.22;66.40
56600;BME280;51832;48.152;11.530;2023-01-26T01:49:22;95784.41;;;4.10;66.52
56600;BME280;51832;48.152;11.530;2023-01-26T01:54:29;95773.59;;;4.21;66.63
56600;BME280;51832;48.152;11.530;2023-01-26T01:59:32;95773.19;;;4.33;66.14
56600;BME280;51832;48.152;11.530;2023-01-26T02:04:32;95768.88;;;4.40;66.10
56600;BME280;51832;48.152;11.530;2023-01-26T02:09:35;95759.06;;;4.04;66.22
56600;BME280;51832;48.152;11.530;2023-01-26T02:14:55;95755.59;;;3.89;67.22
56600;BME280;51832;48.152;11.530;2023-01-26T02:25:17;95749.44;;;4.27;66.76
56600;BME280;51832;48.152;11.530;2023-01-26T02:30:21;95740.44;;;4.53;65.47
56600;BME280;51832;48.152;11.530;2023-01-26T02:35:22;95729.22;;;4.67;64.72
56600;BME280;51832;48.152;11.530;2023-01-26T02:40:36;95718.44;;;4.70;65.02
56600;BME280;51832;48.152;11.530;2023-01-26T02:45:40;95711.13;;;4.36;65.94
56600;BME280;51832;48.152;11.530;2023-01-26T02:50:40;95704.50;;;4.11;66.35
56600;BME280;51832;48.152;11.530;2023-01-26T02:55:41;95692.59;;;3.71;68.28
56600;BME280;51832;48.152;11.530;2023-01-26T03:00:41;95695.56;;;3.90;67.42
56600;BME280;51832;48.152;11.530;2023-01-26T03:05:42;95687.31;;;4.02;67.20
56600;BME280;51832;48.152;11.530;2023-01-26T03:10:42;95684.47;;;4.11;65.88
56600;BME280;51832;48.152;11.530;2023-01-26T03:15:43;95683.06;;;3.63;69.04
56600;BME280;51832;48.152;11.530;2023-01-26T03:20:51;95681.00;;;3.81;67.90
56600;BME280;51832;48.152;11.530;2023-01-26T03:26:10;95675.88;;;3.88;68.16
56600;BME280;51832;48.152;11.530;2023-01-26T03:31:29;95669.66;;;4.12;67.05
56600;BME280;51832;48.152;11.530;2023-01-26T03:36:29;95676.06;;;3.64;67.38
56600;BME280;51832;48.152;11.530;2023-01-26T03:41:30;95675.66;;;3.75;68.08
56600;BME280;51832;48.152;11.530;2023-01-26T03:46:49;95682.81;;;3.50;68.01
56600;BME280;51832;48.152;11.530;2023-01-26T03:52:09;95679.00;;;3.83;67.65
56600;BME280;51832;48.152;11.530;2023-01-26T03:57:28;95671.34;;;4.05;66.65
56600;BME280;51832;48.152;11.530;2023-01-26T04:02:28;95675.31;;;3.55;68.17
56600;BME280;51832;48.152;11.530;2023-01-26T04:07:47;95676.59;;;3.82;67.12
56600;BME280;51832;48.152;11.530;2023-01-26T04:13:06;95674.50;;;3.77;68.07
56600;BME280;51832;48.152;11.530;2023-01-26T04:18:25;95662.81;;;4.11;66.11
56600;BME280;51832;48.152;11.530;2023-01-26T04:23:44;95655.94;;;3.80;66.58
56600;BME280;51832;48.152;11.530;2023-01-26T04:28:45;95649.34;;;3.92;66.87
56600;BME280;51832;48.152;11.530;2023-01-26T04:33:45;95652.63;;;3.86;66.60
56600;BME280;51832;48.152;11.530;2023-01-26T04:38:46;95654.75;;;3.83;66.26
56600;BME280;51832;48.152;11.530;2023-01-26T04:43:47;95645.41;;;4.11;65.41
56600;BME280;51832;48.152;11.530;2023-01-26T04:48:47;95647.78;;;7.60;76.94
56600;BME280;51832;48.152;11.530;2023-01-26T04:53:49;95641.47;;;9.51;68.27
56600;BME280;51832;48.152;11.530;2023-01-26T04:58:50;95646.31;;;9.85;55.74
56600;BME280;51832;48.152;11.530;2023-01-26T05:03:51;95647.94;;;7.45;53.57
56600;BME280;51832;48.152;11.530;2023-01-26T05:08:52;95653.31;;;5.57;58.85
56600;BME280;51832;48.152;11.530;2023-01-26T05:13:52;95647.03;;;5.51;59.00
56600;BME280;51832;48.152;11.530;2023-01-26T05:18:53;95646.03;;;5.16;61.12
56600;BME280;51832;48.152;11.530;2023-01-26T05:23:54;95655.69;;;4.27;64.21
56600;BME280;51832;48.152;11.530;2023-01-26T05:28:54;95644.75;;;4.61;64.09
56600;BME280;51832;48.152;11.530;2023-01-26T05:33:55;95650.03;;;4.53;64.06
56600;BME280;51832;48.152;11.530;2023-01-26T05:38:55;95646.00;;;3.99;66.66
56600;BME280;51832;48.152;11.530;2023-01-26T05:43:56;95644.59;;;4.11;66.77
56600;BME280;51832;48.152;11.530;2023-01-26T05:48:56;95650.06;;;4.01;66.72
56600;BME280;51832;48.152;11.530;2023-01-26T05:53:57;95648.09;;;4.03;66.61
56600;BME280;51832;48.152;11.530;2023-01-26T05:58:57;95649.69;;;3.44;68.61
56600;BME280;51832;48.152;11.530;2023-01-26T06:03:58;95658.91;;;3.54;68.03
56600;BME280;51832;48.152;11.530;2023-01-26T06:08:59;95658.41;;;3.74;68.60
56600;BME280;51832;48.152;11.530;2023-01-26T06:13:59;95666.16;;;4.05;67.27
56600;BME280;51832;48.152;11.530;2023-01-26T06:19:00;95672.81;;;3.39;70.07
56600;BME280;51832;48.152;11.530;2023-01-26T06:24:00;95656.47;;;3.53;69.03
56600;BME280;51832;48.152;11.530;2023-01-26T06:29:01;95655.47;;;3.54;68.11
56600;BME280;51832;48.152;11.530;2023-01-26T06:34:02;95659.44;;;3.42;69.26
56600;BME280;51832;48.152;11.530;2023-01-26T06:39:05;95664.19;;;3.38;69.47
56600;BME280;51832;48.152;11.530;2023-01-26T06:44:07;95660.00;;;3.29;68.73
56600;BME280;51832;48.152;11.530;2023-01-26T06:49:08;95659.88;;;2.92;71.52
56600;BME280;51832;48.152;11.530;2023-01-26T06:54:09;95651.06;;;3.32;69.78
56600;BME280;51832;48.152;11.530;2023-01-26T06:59:10;95647.25;;;2.80;70.23
56600;BME280;51832;48.152;11.530;2023-01-26T07:04:11;95642.44;;;3.31;69.41
56600;BME280;51832;48.152;11.530;2023-01-26T07:09:11;95644.94;;;3.47;67.72
56600;BME280;51832;48.152;11.530;2023-01-26T07:14:12;95647.38;;;3.49;69.18
56600;BME280;51832;48.152;11.530;2023-01-26T07:19:12;95648.25;;;3.64;67.90
56600;BME280;51832;48.152;11.530;2023-01-26T07:24:13;95648.28;;;3.56;67.31
56600;BME280;51832;48.152;11.530;2023-01-26T07:29:13;95648.81;;;3.74;67.07
56600;BME280;51832;48.152;11.530;2023-01-26T07:34:14;95639.78;;;3.85;66.41
56600;BME280;51832;48.152;11.530;2023-01-26T07:39:14;95645.22;;;3.75;66.25
56600;BME280;51832;48.152;11.530;2023-01-26T07:44:15;95634.44;;;4.01;66.04
56600;BME280;51832;48.152;11.530;2023-01-26T07:49:15;95634.28;;;4.03;66.38
56600;BME280;51832;48.152;11.530;2023-01-26T07:54:16;95635.56;;;4.21;65.19
56600;BME280;51832;48.152;11.530;2023-01-26T07:59:16;95627.56;;;3.85;65.31
56600;BME280;51832;48.152;11.530;2023-01-26T08:04:17;95628.16;;;4.10;65.84
56600;BME280;51832;48.152;11.530;2023-01-26T08:09:18;95626.38;;;4.25;64.86
56600;BME280;51832;48.152;11.530;2023-01-26T08:14:18;95624.97;;;4.38;64.38
56600;BME280;51832;48.152;11.530;2023-01-26T08:19:19;95630.09;;;4.31;63.51
56600;BME280;51832;48.152;11.530;2023-01-26T08:24:20;95612.56;;;4.25;64.95
56600;BME280;51832;48.152;11.530;2023-01-26T08:29:20;95616.97;;;4.39;62.89
56600;BME280;51832;48.152;11.530;2023-01-26T08:34:20;95612.03;;;4.29;65.35
56600;BME280;51832;48.152;11.530;2023-01-26T08:39:21;95613.19;;;4.27;65.00
56600;BME280;51832;48.152;11.530;2023-01-26T08:44:22;95618.03;;;4.15;64.90
56600;BME280;51832;48.152;11.530;2023-01-26T08:49:22;95612.59;;;3.87;64.91
56600;BME280;51832;48.152;11.530;2023-01-26T08:54:22;95617.97;;;3.86;65.57
56600;BME280;51832;48.152;11.530;2023-01-26T08:59:23;95616.84;;;3.66;66.20
56600;BME280;51832;48.152;11.530;2023-01-26T09:04:23;95611.88;;;3.79;66.90
56600;BME280;51832;48.152;11.530;2023-01-26T09:09:26;95613.69;;;3.93;65.86
56600;BME280;51832;48.152;11.530;2023-01-26T09:14:26;95611.22;;;3.77;65.98
56600;BME280;51832;48.152;11.530;2023-01-26T09:19:27;95611.53;;;3.97;66.14
56600;BME280;51832;48.152;11.530;2023-01-26T09:24:28;95614.88;;;4.05;64.51
56600;BME280;51832;48.152;11.530;2023-01-26T09:29:28;95614.41;;;4.02;63.62
56600;BME280;51832;48.152;11.530;2023-01-26T09:34:28;95617.13;;;3.93;64.61
56600;BME280;51832;48.152;11.530;2023-01-26T09:39:29;95627.25;;;4.03;64.86
56600;BME280;51832;48.152;11.530;2023-01-26T09:44:34;95616.72;;;3.97;65.36
56600;BME280;51832;48.152;11.530;2023-01-26T09:54:49;95629.09;;;4.17;64.51
56600;BME280;51832;48.152;11.530;2023-01-26T10:04:55;95622.28;;;4.46;62.89
56600;BME280;51832;48.152;11.530;2023-01-26T10:09:56;95612.03;;;4.59;61.08
56600;BME280;51832;48.152;11.530;2023-01-26T10:15:25;95615.28;;;4.46;61.91
56600;BME280;51832;48.152;11.530;2023-01-26T10:20:27;95607.47;;;4.32;61.88
56600;BME280;51832;48.152;11.530;2023-01-26T10:25:34;95604.69;;;4.33;62.18
56600;BME280;51832;48.152;11.530;2023-01-26T10:30:35;95603.06;;;4.32;62.00
56600;BME280;51832;48.152;11.530;2023-01-26T10:35:35;95596.75;;;4.41;62.21
56600;BME280;51832;48.152;11.530;2023-01-26T10:40:43;95595.53;;;4.22;62.56
56600;BME280;51832;48.152;11.530;2023-01-26T10:45:46;95585.50;;;3.97;62.86
56600;BME280;51832;48.152;11.530;2023-01-26T10:50:47;95594.94;;;4.12;62.43
56600;BME280;51832;48.152;11.530;2023-01-26T10:56:10;95592.44;;;4.04;62.70
56600;BME280;51832;48.152;11.530;2023-01-26T11:01:13;95583.19;;;4.02;63.18
56600;BME280;51832;48.152;11.530;2023-01-26T11:06:16;95582.47;;;3.93;62.76
56600;BME280;51832;48.152;11.530;2023-01-26T11:11:28;95573.94;;;3.99;61.64
56600;BME280;51832;48.152;11.530;2023-01-26T11:16:29;95570.81;;;4.18;61.87
56600;BME280;51832;48.152;11.530;2023-01-26T11:21:56;95565.25;;;4.36;60.93
56600;BME280;51832;48.152;11.530;2023-01-26T11:37:59;95576.56;;;4.43;59.98
56600;BME280;51832;48.152;11.530;2023-01-26T11:53:52;95571.28;;;4.22;61.76
56600;BME280;51832;48.152;11.530;2023-01-26T11:59:03;95564.97;;;4.02;62.16
56600;BME280;51832;48.152;11.530;2023-01-26T12:04:16;95564.25;;;3.93;62.37
56600;BME280;51832;48.152;11.530;2023-01-26T12:24:37;95540.72;;;3.49;64.01
56600;BME280;51832;48.152;11.530;2023-01-26T12:35:11;95530.22;;;3.80;62.88
56600;BME280;51832;48.152;11.530;2023-01-26T12:45:34;95525.38;;;4.36;61.86
56600;BME280;51832;48.152;11.530;2023-01-26T12:50:39;95532.81;;;3.95;63.25
56600;BME280;51832;48.152;11.530;2023-01-26T12:55:47;95532.19;;;4.07;63.24
56600;BME280;51832;48.152;11.530;2023-01-26T13:01:00;95534.53;;;4.17;62.43
56600;BME280;51832;48.152;11.530;2023-01-26T13:11:41;95524.03;;;3.96;62.30
56600;BME280;51832;48.152;11.530;2023-01-26T13:16:41;95518.63;;;3.97;63.37
56600;BME280;51832;48.152;11.530;2023-01-26T13:21:43;95523.81;;;4.26;62.28
56600;BME280;51832;48.152;11.530;2023-01-26T13:26:48;95518.00;;;4.24;62.31
56600;BME280;51832;48.152;11.530;2023-01-26T13:37:41;95526.06;;;4.29;61.65
56600;BME280;51832;48.152;11.530;2023-01-26T13:48:06;95524.09;;;4.46;60.45
56600;BME280;51832;48.152;11.530;2023-01-26T13:53:36;95522.16;;;4.70;58.82
56600;BME280;51832;48.152;11.530;2023-01-26T13:58:37;95520.34;;;4.34;59.38
56600;BME280;51832;48.152;11.530;2023-01-26T14:03:37;95519.09;;;4.66;58.22
56600;BME280;51832;48.152;11.530;2023-01-26T14:08:38;95512.06;;;4.81;57.44
56600;BME280;51832;48.152;11.530;2023-01-26T14:13:39;95518.44;;;4.79;57.84
56600;BME280;51832;48.152;11.530;2023-01-26T14:18:40;95526.81;;;4.74;56.65
56600;BME280;51832;48.152;11.530;2023-01-26T14:23:40;95524.47;;;4.79;57.65
56600;BME280;51832;48.152;11.530;2023-01-26T14:28:41;95531.47;;;4.79;57.86
56600;BME280;51832;48.152;11.530;2023-01-26T14:33:42;95522.69;;;4.65;59.12
56600;BME280;51832;48.152;11.530;2023-01-26T14:38:45;95522.69;;;4.65;58.16
56600;BME280;51832;48.152;11.530;2023-01-26T14:43:48;95523.44;;;4.59;58.66
56600;BME280;51832;48.152;11.530;2023-01-26T14:49:02;95516.53;;;4.51;58.98
56600;BME280;51832;48.152;11.530;2023-01-26T14:54:20;95516.84;;;4.78;59.10
56600;BME280;51832;48.152;11.530;2023-01-26T14:59:31;95519.38;;;4.71;58.72
56600;BME280;51832;48.152;11.530;2023-01-26T15:04:37;95511.88;;;4.32;59.05
56600;BME280;51832;48.152;11.530;2023-01-26T15:09:39;95509.00;;;4.42;58.85
56600;BME280;51832;48.152;11.530;2023-01-26T15:19:49;95515.84;;;3.99;60.92
56600;BME280;51832;48.152;11.530;2023-01-26T15:30:32;95514.84;;;4.29;60.46
56600;BME280;51832;48.152;11.530;2023-01-26T15:35:33;95533.53;;;4.18;61.51
56600;BME280;51832;48.152;11.530;2023-01-26T15:40:34;95537.03;;;4.25;61.09
56600;BME280;51832;48.152;11.530;2023-01-26T15:45:34;95541.34;;;4.18;60.87
56600;BME280;51832;48.152;11.530;2023-01-26T15:50:35;95534.06;;;4.28;59.92
56600;BME280;51832;48.152;11.530;2023-01-26T15:55:35;95541.44;;;4.24;60.30
56600;BME280;51832;48.152;11.530;2023-01-26T16:00:36;95537.41;;;4.37;60.28
56600;BME280;51832;48.152;11.530;2023-01-26T16:05:37;95544.59;;;4.35;59.66
56600;BME280;51832;48.152;11.530;2023-01-26T16:10:38;95544.47;;;4.43;59.38
56600;BME280;51832;48.152;11.530;2023-01-26T16:15:42;95540.72;;;4.01;60.21
56600;BME280;51832;48.152;11.530;2023-01-26T16:20:45;95534.97;;;3.91;58.88
56600;BME280;51832;48.152;11.530;2023-01-26T16:25:45;95538.28;;;4.00;60.18
56600;BME280;51832;48.152;11.530;2023-01-26T16:30:47;95534.69;;;4.01;60.30
56600;BME280;51832;48.152;11.530;2023-01-26T16:35:48;95536.66;;;3.99;60.74
56600;BME280;51832;48.152;11.530;2023-01-26T16:40:48;95541.03;;;3.83;61.50
56600;BME280;51832;48.152;11.530;2023-01-26T16:45:49;95545.47;;;3.98;61.53
56600;BME280;51832;48.152;11.530;2023-01-26T16:50:51;95538.28;;;4.14;61.49
56600;BME280;51832;48.152;11.530;2023-01-26T16:55:53;95541.03;;;3.54;63.05
56600;BME280;51832;48.152;11.530;2023-01-26T17:00:54;95539.53;;;3.89;62.23
56600;BME280;51832;48.152;11.530;2023-01-26T17:05:55;95545.84;;;3.95;62.24
56600;BME280;51832;48.152;11.530;2023-01-26T17:10:55;95550.13;;;3.87;62.27
56600;BME280;51832;48.152;11.530;2023-01-26T17:15:57;95554.66;;;3.71;62.61
56600;BME280;51832;48.152;11.530;2023-01-26T17:21:02;95547.19;;;3.90;60.78
56600;BME280;51832;48.152;11.530;2023-01-26T17:26:02;95558.22;;;3.92;61.32
56600;BME280;51832;48.152;11.530;2023-01-26T17:31:12;95548.97;;;3.90;61.09
56600;BME280;51832;48.152;11.530;2023-01-26T17:36:14;95551.53;;;3.75;61.87
56600;BME280;51832;48.152;11.530;2023-01-26T17:41:16;95559.97;;;3.63;62.66
56600;BME280;51832;48.152;11.530;2023-01-26T17:46:18;95547.28;;;3.82;61.64
56600;BME280;51832;48.152;11.530;2023-01-26T17:51:19;95554.88;;;3.84;61.64
56600;BME280;51832;48.152;11.530;2023-01-26T17:56:20;95550.03;;;3.43;62.22
56600;BME280;51832;48.152;11.530;2023-01-26T18:01:22;95548.50;;;3.86;61.20
56600;BME280;51832;48.152;11.530;2023-01-26T18:06:23;95549.84;;;3.97;61.47
56600;BME280;51832;48.152;11.530;2023-01-26T18:11:24;95540.97;;;3.91;61.10
56600;BME280;51832;48.152;11.530;2023-01-26T18:16:24;95544.22;;;3.93;60.40
56600;BME280;51832;48.152;11.530;2023-01-26T18:21:27;95547.53;;;4.02;60.35
56600;BME280;51832;48.152;11.530;2023-01-26T18:26:32;95545.47;;;4.12;59.60
56600;BME280;51832;48.152;11.530;2023-01-26T18:31:35;95554.91;;;4.13;60.65
56600;BME280;51832;48.152;11.530;2023-01-26T18:36:35;95550.59;;;4.20;59.87
56600;BME280;51832;48.152;11.530;2023-01-26T18:41:36;95550.88;;;3.96;60.31
56600;BME280;51832;48.152;11.530;2023-01-26T18:46:39;95544.50;;;4.13;59.37
56600;BME280;51832;48.152;11.530;2023-01-26T18:51:39;95547.56;;;4.17;59.75
56600;BME280;51832;48.152;11.530;2023-01-26T18:56:46;95543.13;;;3.88;60.81
56600;BME280;51832;48.152;11.530;2023-01-26T19:01:47;95543.41;;;3.78;61.10
56600;BME280;51832;48.152;11.530;2023-01-26T19:06:48;95548.19;;;4.19;60.65
56600;BME280;51832;48.152;11.530;2023-01-26T19:11:49;95550.44;;;4.22;60.38
56600;BME280;51832;48.152;11.530;2023-01-26T19:16:50;95537.41;;;4.07;60.28
56600;BME280;51832;48.152;11.530;2023-01-26T19:21:51;95550.50;;;4.28;59.85
56600;BME280;51832;48.152;11.530;2023-01-26T19:26:51;95544.78;;;4.18;59.56
56600;BME280;51832;48.152;11.530;2023-01-26T19:31:51;95542.41;;;4.38;59.29
56600;BME280;51832;48.152;11.530;2023-01-26T19:36:52;95545.41;;;4.20;59.94
56600;BME280;51832;48.152;11.530;2023-01-26T19:41:52;95546.25;;;3.83;60.80
56600;BME280;51832;48.152;11.530;2023-01-26T19:46:53;95548.44;;;3.95;60.38
56600;BME280;51832;48.152;11.530;2023-01-26T19:51:54;95545.06;;;4.23;58.81
56600;BME280;51832;48.152;11.530;2023-01-26T19:56:55;95549.53;;;4.29;59.56
56600;BME280;51832;48.152;11.530;2023-01-26T20:01:56;95539.63;;;4.25;59.83
56600;BME280;51832;48.152;11.530;2023-01-26T20:06:56;95546.91;;;4.00;59.87
56600;BME280;51832;48.152;11.530;2023-01-26T20:11:56;95545.91;;;4.96;68.87
56600;BME280;51832;48.152;11.530;2023-01-26T20:16:57;95543.50;;;4.80;58.83
56600;BME280;51832;48.152;11.530;2023-01-26T20:21:57;95535.03;;;4.56;57.84
56600;BME280;51832;48.152;11.530;2023-01-26T20:26:58;95538.75;;;4.18;58.09
56600;BME280;51832;48.152;11.530;2023-01-26T20:31:59;95531.22;;;4.08;57.85
56600;BME280;51832;48.152;11.530;2023-01-26T20:36:59;95531.38;;;4.07;57.75
56600;BME280;51832;48.152;11.530;2023-01-26T20:42:00;95531.75;;;4.18;58.44
56600;BME280;51832;48.152;11.530;2023-01-26T20:47:00;95533.81;;;4.23;58.56
56600;BME280;51832;48.152;11.530;2023-01-26T20:52:01;95528.69;;;4.29;58.48
56600;BME280;51832;48.152;11.530;2023-01-26T20:57:01;95522.66;;;4.14;59.85
56600;BME280;51832;48.152;11.530;2023-01-26T21:02:02;95529.03;;;4.12;59.88
56600;BME280;51832;48.152;11.530;2023-01-26T21:07:03;95523.31;;;4.02;60.58
56600;BME280;51832;48.152;11.530;2023-01-26T21:12:04;95521.69;;;4.30;61.39
56600;BME280;51832;48.152;11.530;2023-01-26T21:17:04;95522.38;;;4.39;60.49
56600;BME280;51832;48.152;11.530;2023-01-26T21:22:06;95517.72;;;4.34;60.58
56600;BME280;51832;48.152;11.530;2023-01-26T21:27:06;95517.63;;;4.42;59.99
56600;BME280;51832;48.152;11.530;2023-01-26T21:32:07;95519.81;;;4.09;61.31
56600;BME280;51832;48.152;11.530;2023-01-26T21:37:07;95518.53;;;4.35;60.29
56600;BME280;51832;48.152;11.530;2023-01-26T21:42:08;95503.09;;;4.33;60.44
56600;BME280;51832;48.152;11.530;2023-01-26T21:47:08;95510.91;;;4.33;60.68
56600;BME280;51832;48.152;11.530;2023-01-26T21:52:09;95514.50;;;4.32;60.56
56600;BME280;51832;48.152;11.530;2023-01-26T21:57:28;95518.34;;;4.51;59.79
56600;BME280;51832;48.152;11.530;2023-01-26T22:02:47;95519.03;;;4.59;58.44
56600;BME280;51832;48.152;11.530;2023-01-26T22:07:47;95508.63;;;4.59;59.07
56600;BME280;51832;48.152;11.530;2023-01-26T22:12:48;95517.44;;;4.44;60.64
56600;BME280;51832;48.152;11.530;2023-01-26T22:17:48;95514.53;;;4.53;60.77
56600;BME280;51832;48.152;11.530;2023-01-26T22:22:48;95498.25;;;4.01;62.26
56600;BME280;51832;48.152;11.530;2023-01-26T22:27:49;95512.19;;;3.93;63.91
56600;BME280;51832;48.152;11.530;2023-01-26T22:32:49;95514.41;;;3.81;64.54
56600;BME280;51832;48.152;11.530;2023-01-26T22:37:50;95510.97;;;3.66;65.92
56600;BME280;51832;48.152;11.530;2023-01-26T22:42:51;95510.00;;;3.97;65.47
56600;BME280;51832;48.152;11.530;2023-01-26T22:47:52;95511.19;;;4.09;64.46
56600;BME280;51832;48.152;11.530;2023-01-26T22:52:52;95506.69;;;4.17;64.69
56600;BME280;51832;48.152;11.530;2023-01-26T22:57:52;95495.63;;;4.15;65.36
56600;BME280;51832;48.152;11.530;2023-01-26T23:02:53;95492.50;;;3.90;66.28
56600;BME280;51832;48.152;11.530;2023-01-26T23:07:53;95498.25;;;4.01;66.37
56600;BME280;51832;48.152;11.530;2023-01-26T23:12:54;95500.31;;;4.05;66.26
56600;BME280;51832;48.152;11.530;2023-01-26T23:17:54;95482.56;;;4.09;64.96
56600;BME280;51832;48.152;11.530;2023-01-26T23:22:55;95493.41;;;3.98;66.44
56600;BME280;51832;48.152;11.530;2023-01-26T23:27:55;95490.72;;;3.91;66.00
56600;BME280;51832;48.152;11.530;2023-01-26T23:32:56;95491.88;;;4.03;66.47
56600;BME280;51832;48.152;11.530;2023-01-26T23:37:56;95488.19;;;4.12;65.83
56600;BME280;51832;48.152;11.530;2023-01-26T23:42:57;95473.72;;;4.24;65.86
56600;BME280;51832;48.152;11.530;2023-01-26T23:47:57;95474.66;;;3.87;66.88
56600;BME280;51832;48.152;11.530;2023-01-26T23:52:58;95466.59;;;3.82;67.21
56600;BME280;51832;48.152;11.530;2023-01-26T23:57:58;95463.94;;;3.97;67.55
